Time;durP1;ratioP1;P1;durP2;ratioP2;P2;SDS_P1;SDS_P2;PMS_P1;PMS_P2;Temp;Humidity;BMP_temperature;BMP_pressure;BME280_temperature;BME280_humidity;BME280_pressure;Samples;Min_cycle;Max_cycle;Signal;HPM_P1;HPM_P2
2023/01/28 00:01:06;;;;;;;7.22;6.00;;;;;;;0.88;73.42;93980.09;4146592;28;20144;-63
2023/01/28 00:03:08;;;;;;;8.77;6.90;;;;;;;0.92;73.14;93981.50;4147591;28;20100;-63
2023/01/28 00:05:09;;;;;;;8.50;6.88;;;;;;;0.93;72.59;93980.56;4137043;28;20133;-64
2023/01/28 00:07:11;;;;;;;8.40;6.38;;;;;;;0.93;72.89;93977.97;4144157;28;20085;-65
2023/01/28 00:09:13;;;;;;;8.98;6.55;;;;;;;0.98;73.44;93983.59;4147357;28;20088;-66
2023/01/28 00:11:15;;;;;;;8.05;6.18;;;;;;;0.92;72.82;93996.97;4146369;28;20096;-67
2023/01/28 00:13:16;;;;;;;7.82;6.40;;;;;;;0.81;73.07;93996.03;4141324;28;20042;-65
2023/01/28 00:15:18;;;;;;;8.32;6.25;;;;;;;0.85;73.04;93995.81;4139143;28;20054;-64
2023/01/28 00:17:19;;;;;;;7.85;6.65;;;;;;;0.93;73.04;93998.63;4147229;28;20128;-62
2023/01/28 00:19:22;;;;;;;9.27;6.88;;;;;;;0.91;72.99;94003.88;4144763;28;20050;-62
2023/01/28 00:21:23;;;;;;;8.43;6.80;;;;;;;0.85;72.86;94006.94;4146024;28;20077;-65
2023/01/28 00:23:27;;;;;;;9.10;6.97;;;;;;;0.90;73.40;94009.97;4147229;28;20057;-64
2023/01/28 00:25:29;;;;;;;7.97;6.35;;;;;;;0.97;72.81;94015.50;4147160;28;20141;-65
2023/01/28 00:27:31;;;;;;;8.40;6.60;;;;;;;0.91;72.40;94008.22;4146049;28;20057;-65
2023/01/28 00:29:33;;;;;;;8.65;6.30;;;;;;;0.86;72.55;94013.75;4140822;28;20154;-65
2023/01/28 00:31:36;;;;;;;8.90;6.80;;;;;;;0.88;73.08;94013.59;4147091;28;20050;-66
2023/01/28 00:33:38;;;;;;;8.38;6.00;;;;;;;0.89;72.79;94015.25;4146982;28;20054;-65
2023/01/28 00:35:40;;;;;;;8.25;6.35;;;;;;;0.91;73.05;94014.19;4117844;28;20540;-64
2023/01/28 00:37:45;;;;;;;8.35;6.47;;;;;;;0.94;72.69;94013.94;4142867;28;20054;-64
2023/01/28 00:39:46;;;;;;;8.60;6.65;;;;;;;0.96;72.31;94016.41;4130818;28;20050;-64
2023/01/28 00:41:48;;;;;;;8.25;6.35;;;;;;;0.92;72.71;94020.97;4129235;28;20112;-65
2023/01/28 00:43:50;;;;;;;7.50;6.40;;;;;;;0.88;72.73;94026.50;4132006;28;20050;-63
2023/01/28 00:45:52;;;;;;;8.35;7.03;;;;;;;0.86;72.72;94023.22;4146733;28;20054;-63
2023/01/28 00:47:53;;;;;;;9.25;7.22;;;;;;;0.86;72.53;94024.06;4146743;28;20080;-63
2023/01/28 00:49:55;;;;;;;8.35;6.45;;;;;;;0.93;72.97;94025.22;4147003;28;20046;-63
2023/01/28 00:51:57;;;;;;;9.05;7.07;;;;;;;0.82;72.81;94028.63;4144851;28;20061;-63
2023/01/28 00:53:58;;;;;;;8.55;6.93;;;;;;;0.85;73.09;94021.59;4142263;28;20225;-64
2023/01/28 00:56:01;;;;;;;9.13;7.07;;;;;;;0.83;72.88;94029.44;4145712;28;20058;-64
2023/01/28 00:58:03;;;;;;;10.48;6.65;;;;;;;0.89;73.07;94023.81;4145697;28;20472;-64
2023/01/28 01:00:05;;;;;;;9.77;6.88;;;;;;;0.94;72.75;94033.78;4146285;28;20443;-66
2023/01/28 01:02:12;;;;;;;9.80;7.30;;;;;;;0.93;72.60;94024.41;4146188;28;20332;-63
2023/01/28 01:04:25;;;;;;;9.35;6.78;;;;;;;0.94;72.60;94018.28;4146065;28;20538;-64
2023/01/28 01:06:29;;;;;;;9.23;7.40;;;;;;;1.02;72.52;94032.25;4146263;28;20045;-64
2023/01/28 01:08:34;;;;;;;8.50;7.10;;;;;;;1.00;72.26;94020.41;4146334;28;20084;-64
2023/01/28 01:10:37;;;;;;;9.57;7.38;;;;;;;0.93;72.55;94021.81;4146170;28;20472;-64
2023/01/28 01:12:39;;;;;;;8.85;6.70;;;;;;;0.89;72.49;94023.00;4145076;28;20081;-63
2023/01/28 01:14:40;;;;;;;9.23;6.80;;;;;;;0.88;72.44;94031.66;4145729;28;20500;-62
2023/01/28 01:16:42;;;;;;;8.60;6.70;;;;;;;0.87;72.39;94027.44;4139918;28;20477;-62
2023/01/28 01:18:44;;;;;;;9.88;7.30;;;;;;;0.91;72.43;94026.28;4130482;28;20421;-63
2023/01/28 01:20:45;;;;;;;9.40;7.70;;;;;;;0.99;72.60;94034.22;4143330;28;20081;-62
2023/01/28 01:22:47;;;;;;;9.18;7.22;;;;;;;0.95;72.09;94030.28;4143285;28;20089;-63
2023/01/28 01:24:49;;;;;;;8.65;7.03;;;;;;;0.91;72.18;94036.59;4146126;28;20054;-63
2023/01/28 01:26:51;;;;;;;9.15;7.30;;;;;;;0.93;72.59;94030.38;4144526;28;20559;-64
2023/01/28 01:28:53;;;;;;;8.05;6.63;;;;;;;0.97;72.76;94030.97;4145178;28;20049;-64
2023/01/28 01:31:08;;;;;;;10.55;8.00;;;;;;;0.92;72.56;94039.03;4145921;28;20100;-65
2023/01/28 01:33:09;;;;;;;9.63;7.20;;;;;;;0.90;72.72;94038.34;4142170;28;20046;-62
2023/01/28 01:35:11;;;;;;;9.43;7.38;;;;;;;0.95;72.24;94033.66;4135663;28;20129;-63
2023/01/28 01:37:13;;;;;;;10.20;7.47;;;;;;;0.98;72.40;94038.56;4112636;28;20161;-64
2023/01/28 01:39:15;;;;;;;9.02;7.30;;;;;;;1.05;72.36;94036.34;4128674;28;20452;-63
2023/01/28 01:41:26;;;;;;;8.80;6.82;;;;;;;0.99;72.22;94037.66;4145431;28;20536;-63
2023/01/28 01:43:47;;;;;;;9.48;7.20;;;;;;;1.02;71.90;94044.31;4128264;28;20050;-64
2023/01/28 01:45:58;;;;;;;8.57;6.75;;;;;;;0.97;72.46;94043.88;4140445;28;20492;-64
2023/01/28 01:48:05;;;;;;;10.73;7.40;;;;;;;0.95;72.15;94045.75;4128226;28;20054;-63
2023/01/28 01:50:23;;;;;;;8.80;7.28;;;;;;;0.93;72.26;94042.47;4128500;28;20050;-62
2023/01/28 01:52:27;;;;;;;9.10;7.05;;;;;;;0.88;72.76;94034.22;4134720;28;20054;-63
2023/01/28 01:54:29;;;;;;;9.35;6.97;;;;;;;0.89;73.18;94046.22;4127611;28;20105;-63
2023/01/28 01:56:36;;;;;;;9.75;7.35;;;;;;;0.90;73.15;94042.69;4144807;28;20085;-63
2023/01/28 01:58:40;;;;;;;7.82;6.13;;;;;;;0.80;72.98;94042.56;4125972;28;20059;-64
2023/01/28 02:00:42;;;;;;;8.57;6.45;;;;;;;0.84;72.98;94046.56;4136198;28;20110;-65
2023/01/28 02:02:46;;;;;;;8.52;7.15;;;;;;;0.88;73.36;94036.81;4140940;28;20133;-62
2023/01/28 02:04:48;;;;;;;9.05;6.75;;;;;;;0.90;73.54;94040.09;4124108;28;20085;-63
2023/01/28 02:06:51;;;;;;;9.75;7.13;;;;;;;0.88;72.87;94042.78;4137672;28;20054;-64
2023/01/28 02:08:54;;;;;;;8.20;6.35;;;;;;;0.91;72.57;94047.72;4125164;28;20081;-65
2023/01/28 02:11:05;;;;;;;7.97;6.55;;;;;;;0.99;72.89;94057.44;4142075;28;20046;-65
2023/01/28 02:13:06;;;;;;;7.97;6.70;;;;;;;0.96;72.25;94055.09;4118505;28;20046;-65
2023/01/28 02:15:12;;;;;;;9.35;6.45;;;;;;;0.99;72.48;94054.84;4145584;28;20046;-64
2023/01/28 02:17:15;;;;;;;7.60;6.13;;;;;;;0.97;72.32;94047.25;4128056;28;20058;-63
2023/01/28 02:19:18;;;;;;;8.70;6.82;;;;;;;1.02;72.61;94052.06;4128450;28;20133;-64
2023/01/28 02:22:02;;;;;;;8.73;6.20;;;;;;;0.97;72.47;94049.03;4128382;28;20078;-63
2023/01/28 02:24:22;;;;;;;8.80;7.03;;;;;;;0.99;72.36;94054.84;4134852;28;20131;-63
2023/01/28 02:26:41;;;;;;;7.75;6.38;;;;;;;0.93;72.58;94045.03;4140525;28;20050;-62
2023/01/28 02:29:05;;;;;;;9.43;7.13;;;;;;;0.92;72.35;94053.69;4144815;28;20053;-64
2023/01/28 02:31:13;;;;;;;;;;;;;;;0.91;72.12;94057.22;4129938;28;20046;-62
2023/01/28 02:33:39;;;;;;;9.25;7.05;;;;;;;0.88;72.62;94054.88;4144475;28;20375;-62
2023/01/28 02:35:51;;;;;;;9.57;7.35;;;;;;;0.75;72.87;94053.22;4133122;28;20097;-62
2023/01/28 02:37:58;;;;;;;9.30;7.47;;;;;;;0.75;72.71;94055.81;4116842;28;20446;-61
2023/01/28 02:40:12;;;;;;;9.35;6.97;;;;;;;0.73;72.73;94062.84;4139053;28;20069;-63
2023/01/28 02:42:20;;;;;;;9.23;7.25;;;;;;;0.78;72.81;94052.19;4132303;28;20085;-62
2023/01/28 02:44:22;;;;;;;8.18;6.85;;;;;;;0.78;72.76;94057.34;4142181;28;20513;-62
2023/01/28 02:48:45;;;;;;;8.52;6.20;;;;;;;0.79;72.64;94056.38;4138088;28;20054;-60
2023/01/28 02:51:15;;;;;;;8.77;6.90;;;;;;;0.75;72.31;94057.53;4145428;28;20046;-62
2023/01/28 02:55:55;;;;;;;10.30;7.07;;;;;;;0.74;72.88;94056.72;4102135;28;20138;-62
2023/01/28 02:58:20;;;;;;;9.40;7.47;;;;;;;0.79;72.53;94062.34;4124836;28;20125;-60
2023/01/28 03:00:53;;;;;;;8.15;6.60;;;;;;;0.91;72.06;94062.38;4132155;28;20577;-62
2023/01/28 03:03:24;;;;;;;7.85;6.25;;;;;;;0.79;72.06;94061.53;4104562;28;20141;-61
2023/01/28 03:05:30;;;;;;;8.80;7.07;;;;;;;0.74;72.74;94061.88;4145220;28;21421;-61
2023/01/28 03:07:34;;;;;;;8.48;6.55;;;;;;;0.73;72.41;94065.41;4127133;28;20050;-60
2023/01/28 03:09:38;;;;;;;8.07;6.30;;;;;;;0.63;72.35;94061.88;4125593;28;20054;-61
2023/01/28 03:38:21;;;;;;;8.77;6.70;;;;;;;0.51;72.99;94075.66;4140779;28;20054;-62
2023/01/28 03:40:23;;;;;;;9.68;7.38;;;;;;;0.57;73.17;94073.47;4142882;28;20058;-62
2023/01/28 03:42:25;;;;;;;9.27;6.57;;;;;;;0.66;73.15;94071.94;4146543;28;20520;-61
2023/01/28 03:46:47;;;;;;;7.82;6.47;;;;;;;0.75;72.58;94073.84;4132869;28;20054;-60
2023/01/28 03:48:49;;;;;;;8.18;6.43;;;;;;;0.62;72.40;94080.84;4147298;28;20053;-60
2023/01/28 03:50:51;;;;;;;8.90;6.88;;;;;;;0.58;72.73;94085.44;4146924;28;20046;-62
2023/01/28 03:52:53;;;;;;;8.93;7.22;;;;;;;0.67;72.96;94086.50;4147268;28;20046;-62
2023/01/28 03:54:55;;;;;;;9.40;7.10;;;;;;;0.76;72.79;94085.00;4147743;28;20096;-62
2023/01/28 03:56:56;;;;;;;8.35;6.60;;;;;;;0.72;72.06;94086.97;4145423;28;20050;-61
2023/01/28 03:58:58;;;;;;;8.63;6.78;;;;;;;0.63;72.34;94090.22;4147238;28;20050;-61
2023/01/28 04:01:00;;;;;;;9.40;6.05;;;;;;;0.70;72.39;94094.00;4147241;28;20046;-61
2023/01/28 04:03:01;;;;;;;9.43;7.30;;;;;;;0.73;72.20;94085.19;4146819;28;20077;-61
2023/01/28 04:05:05;;;;;;;9.30;6.80;;;;;;;0.63;71.83;94090.22;4129942;28;20141;-61
2023/01/28 04:07:07;;;;;;;;;;;;;;;0.63;72.16;94092.00;4144886;28;20119;-61
2023/01/28 04:09:09;;;;;;;9.35;7.28;;;;;;;0.63;72.35;94086.84;4147237;28;19921;-61
2023/01/28 04:11:18;;;;;;;8.10;6.72;;;;;;;0.66;72.34;94094.34;4146589;28;20052;-61
2023/01/28 04:13:20;;;;;;;8.10;6.78;;;;;;;0.64;72.02;94097.03;4146946;28;20050;-62
2023/01/28 04:15:22;;;;;;;8.40;6.82;;;;;;;0.67;72.17;94098.53;4147153;28;20621;-62
2023/01/28 04:17:24;;;;;;;8.40;6.38;;;;;;;0.58;72.23;94097.47;4137165;28;20052;-62
2023/01/28 04:19:27;;;;;;;7.88;6.70;;;;;;;0.52;71.95;94103.91;4147198;28;20049;-62
2023/01/28 04:21:28;;;;;;;8.02;6.13;;;;;;;0.56;72.56;94104.50;4134284;28;20054;-62
2023/01/28 04:23:30;;;;;;;8.32;6.95;;;;;;;0.54;72.95;94103.81;4130957;28;20053;-62
2023/01/28 04:25:32;;;;;;;8.38;6.05;;;;;;;0.55;72.68;94106.25;4136628;28;20127;-62
2023/01/28 04:27:33;;;;;;;9.40;6.50;;;;;;;0.53;72.72;94107.31;4143953;28;20046;-61
2023/01/28 04:29:35;;;;;;;7.97;6.70;;;;;;;0.52;72.77;94108.25;4146631;28;20053;-62
2023/01/28 04:31:37;;;;;;;11.07;7.82;;;;;;;0.58;72.66;94116.34;4142805;28;20050;-63
2023/01/28 04:33:39;;;;;;;9.68;7.18;;;;;;;0.65;72.67;94113.34;4147240;28;20054;-63
2023/01/28 04:35:40;;;;;;;7.35;6.18;;;;;;;0.61;72.81;94110.97;4147314;28;20054;-61
2023/01/28 04:37:42;;;;;;;8.60;6.53;;;;;;;0.69;72.66;94117.28;4142349;28;20068;-62
2023/01/28 04:39:44;;;;;;;8.57;7.07;;;;;;;0.71;72.41;94121.44;4142571;28;20058;-61
2023/01/28 04:41:45;;;;;;;9.02;7.07;;;;;;;0.71;73.01;94125.75;4140882;28;20104;-62
2023/01/28 04:43:48;;;;;;;8.90;6.50;;;;;;;0.72;72.81;94133.38;4142092;28;20351;-59
2023/01/28 04:45:49;;;;;;;9.00;7.30;;;;;;;0.78;73.21;94125.19;4139690;28;20088;-62
2023/01/28 04:47:51;;;;;;;8.27;6.85;;;;;;;0.79;73.05;94131.97;4146430;28;20053;-62
2023/01/28 04:49:52;;;;;;;7.30;6.05;;;;;;;0.80;72.80;94132.81;4142895;28;20077;-60
2023/01/28 04:51:54;;;;;;;7.80;6.22;;;;;;;0.76;72.88;94132.22;4128892;28;20046;-62
2023/01/28 04:53:56;;;;;;;7.65;6.13;;;;;;;0.70;72.72;94132.66;4139546;28;20058;-62
2023/01/28 04:55:58;;;;;;;7.30;6.10;;;;;;;0.65;73.07;94139.91;4147084;28;20077;-61
2023/01/28 04:57:59;;;;;;;8.73;6.60;;;;;;;0.65;73.28;94137.34;4146012;28;20502;-62
2023/01/28 05:00:01;;;;;;;7.97;6.22;;;;;;;0.62;73.24;94134.97;4141269;28;20061;-62
2023/01/28 05:02:03;;;;;;;9.07;6.68;;;;;;;0.66;73.61;94138.16;4140979;28;20046;-61
2023/01/28 05:04:04;;;;;;;7.72;6.45;;;;;;;0.66;73.61;94141.56;4140970;28;20071;-61
2023/01/28 05:06:06;;;;;;;7.57;6.25;;;;;;;0.59;73.49;94145.53;4145337;28;20496;-61
2023/01/28 05:08:08;;;;;;;8.10;6.35;;;;;;;0.59;73.34;94146.34;4139923;28;20049;-62
2023/01/28 05:10:10;;;;;;;9.43;6.57;;;;;;;0.58;73.10;94149.88;4140392;28;20390;-61
2023/01/28 05:12:11;;;;;;;8.40;6.57;;;;;;;0.55;72.82;94146.69;4145331;28;20042;-61
2023/01/28 05:14:13;;;;;;;7.97;6.57;;;;;;;0.58;72.96;94152.44;4140767;28;20049;-62
2023/01/28 05:16:14;;;;;;;8.88;6.80;;;;;;;0.64;73.26;94158.88;4138737;28;20093;-61
2023/01/28 05:18:16;;;;;;;8.23;6.10;;;;;;;0.53;72.81;94157.09;4141228;28;20049;-63
2023/01/28 05:20:18;;;;;;;9.52;7.63;;;;;;;0.37;73.54;94156.56;4145893;28;20123;-61
2023/01/28 05:22:19;;;;;;;8.75;6.50;;;;;;;0.45;73.31;94161.16;4139689;28;20082;-63
2023/01/28 05:24:21;;;;;;;9.50;7.57;;;;;;;0.43;73.35;94160.44;4139801;28;20050;-63
2023/01/28 05:26:23;;;;;;;8.15;6.88;;;;;;;0.45;72.39;94161.97;4132409;28;20489;-62
2023/01/28 05:28:24;;;;;;;8.90;7.30;;;;;;;0.51;72.42;94158.16;4142425;28;20603;-61
2023/01/28 05:30:26;;;;;;;7.50;6.47;;;;;;;0.47;72.52;94167.84;4139183;28;20086;-60
2023/01/28 05:32:28;;;;;;;9.10;6.85;;;;;;;0.53;72.56;94166.59;4128970;28;20473;-62
2023/01/28 05:34:29;;;;;;;10.02;7.15;;;;;;;0.61;72.15;94164.28;4133072;28;20050;-62
2023/01/28 05:36:31;;;;;;;11.25;8.45;;;;;;;0.64;71.96;94169.19;4140106;28;20378;-62
2023/01/28 05:38:33;;;;;;;9.23;7.75;;;;;;;0.64;71.86;94171.78;4130001;28;20061;-61
2023/01/28 05:40:34;;;;;;;8.32;7.13;;;;;;;0.68;71.86;94175.78;4129999;28;20047;-63
2023/01/28 05:42:36;;;;;;;9.15;7.22;;;;;;;0.63;71.52;94177.06;4141783;28;20047;-64
2023/01/28 05:44:38;;;;;;;9.77;7.18;;;;;;;0.65;71.31;94176.00;4136920;28;20046;-62
2023/01/28 05:46:44;;;;;;;9.48;7.25;;;;;;;0.66;71.64;94180.22;4146312;28;20412;-62
2023/01/28 05:48:45;;;;;;;9.68;6.90;;;;;;;0.71;71.56;94179.88;4133441;28;20046;-62
2023/01/28 05:50:47;;;;;;;9.02;6.80;;;;;;;0.60;71.41;94180.66;4145916;28;20132;-62
2023/01/28 05:52:49;;;;;;;7.88;6.22;;;;;;;0.63;71.92;94180.47;4145209;28;20057;-62
2023/01/28 05:54:50;;;;;;;8.20;6.43;;;;;;;0.66;71.59;94181.97;4145417;28;20049;-62
2023/01/28 05:56:52;;;;;;;8.77;6.35;;;;;;;0.57;72.08;94183.47;4144648;28;20108;-62
2023/01/28 05:58:53;;;;;;;8.45;6.43;;;;;;;0.45;71.88;94181.78;4145345;28;20404;-63
2023/01/28 06:00:55;;;;;;;8.13;6.75;;;;;;;0.54;72.25;94181.13;4145574;28;20081;-64
2023/01/28 06:02:57;;;;;;;8.85;7.10;;;;;;;0.44;72.30;94195.59;4145763;28;20530;-62
2023/01/28 06:04:59;;;;;;;9.75;7.40;;;;;;;0.51;72.21;94189.88;4145427;28;20449;-62
2023/01/28 06:07:01;;;;;;;8.48;7.00;;;;;;;0.50;71.91;94200.31;4142469;28;20053;-61
2023/01/28 06:09:02;;;;;;;8.88;6.65;;;;;;;0.47;72.05;94197.94;4146325;28;20092;-62
2023/01/28 06:11:04;;;;;;;8.40;6.30;;;;;;;0.54;72.11;94194.84;4145087;28;20058;-61
2023/01/28 06:13:06;;;;;;;8.00;6.47;;;;;;;0.59;71.73;94207.38;4127214;28;20133;-63
2023/01/28 06:15:08;;;;;;;8.43;6.78;;;;;;;0.64;71.73;94209.63;4148129;28;20050;-62
2023/01/28 06:17:09;;;;;;;15.15;9.60;;;;;;;0.57;71.88;94207.50;4148935;28;20046;-61
2023/01/28 06:19:11;;;;;;;9.95;7.97;;;;;;;0.65;71.88;94208.72;4149220;28;20041;-63
2023/01/28 06:21:13;;;;;;;11.95;8.10;;;;;;;0.55;71.36;94216.28;4148772;28;20085;-62
2023/01/28 06:23:14;;;;;;;8.77;6.93;;;;;;;0.53;72.13;94228.44;4148147;28;20053;-61
2023/01/28 06:25:17;;;;;;;9.82;7.32;;;;;;;0.57;72.04;94228.09;4135595;28;20046;-62
2023/01/28 06:27:18;;;;;;;9.90;7.35;;;;;;;0.41;72.18;94227.56;4146885;28;20061;-60
2023/01/28 06:29:20;;;;;;;10.35;8.05;;;;;;;0.45;72.24;94223.00;4148449;28;20045;-63
2023/01/28 06:31:22;;;;;;;9.35;7.30;;;;;;;0.47;72.30;94232.28;4149185;28;20057;-63
2023/01/28 06:33:23;;;;;;;9.85;7.57;;;;;;;0.42;72.28;94236.13;4148951;28;20042;-62
2023/01/28 06:35:25;;;;;;;10.90;7.25;;;;;;;0.45;72.66;94239.28;4149081;28;20484;-63
2023/01/28 06:37:27;;;;;;;9.43;7.55;;;;;;;0.49;72.36;94242.47;4148603;28;20108;-62
2023/01/28 06:39:31;;;;;;;9.65;7.32;;;;;;;0.49;72.40;94242.47;4148731;28;20054;-63
2023/01/28 06:41:33;;;;;;;11.20;8.00;;;;;;;0.48;71.76;94243.41;4138492;28;20120;-64
2023/01/28 06:43:34;;;;;;;10.15;7.63;;;;;;;0.47;72.13;94245.16;4136503;28;20117;-60
2023/01/28 06:45:36;;;;;;;11.00;7.20;;;;;;;0.49;71.99;94253.59;4134456;28;20054;-64
2023/01/28 06:47:38;;;;;;;10.18;8.00;;;;;;;0.53;71.91;94265.34;4148919;28;20050;-63
2023/01/28 06:49:40;;;;;;;10.50;7.50;;;;;;;0.48;72.52;94261.47;4148513;28;20053;-61
2023/01/28 06:51:42;;;;;;;11.35;8.48;;;;;;;0.38;72.04;94256.94;4136243;28;20053;-61
2023/01/28 06:53:44;;;;;;;11.73;8.82;;;;;;;0.41;72.43;94255.94;4145143;28;20045;-63
2023/01/28 06:55:46;;;;;;;11.38;7.43;;;;;;;0.46;72.14;94271.06;4138442;28;20093;-60
2023/01/28 06:57:48;;;;;;;13.18;8.38;;;;;;;0.53;72.14;94269.69;4147590;28;20421;-64
2023/01/28 06:59:50;;;;;;;10.40;7.78;;;;;;;0.50;71.59;94273.31;4148337;28;20046;-63
2023/01/28 07:01:51;;;;;;;12.25;9.40;;;;;;;0.53;71.86;94270.50;4135749;28;20084;-63
2023/01/28 07:03:53;;;;;;;10.32;8.32;;;;;;;0.55;71.93;94271.22;4148839;28;20153;-61
2023/01/28 07:05:54;;;;;;;10.52;8.30;;;;;;;0.60;72.23;94263.16;4148237;28;20049;-63
2023/01/28 07:07:56;;;;;;;10.52;8.13;;;;;;;0.54;72.10;94274.72;4147786;28;20054;-62
2023/01/28 07:09:58;;;;;;;11.32;8.45;;;;;;;0.63;72.13;94275.84;4148404;28;20111;-62
2023/01/28 07:12:04;;;;;;;12.10;8.20;;;;;;;0.56;71.59;94283.19;4146546;28;20069;-62
2023/01/28 07:14:05;;;;;;;11.00;9.23;;;;;;;0.54;72.45;94289.38;4147755;28;20061;-61
2023/01/28 07:16:07;;;;;;;11.05;8.40;;;;;;;0.43;72.52;94289.28;4147602;28;20057;-62
2023/01/28 07:18:09;;;;;;;12.00;8.93;;;;;;;0.42;72.57;94292.81;4148279;28;20053;-63
2023/01/28 07:20:13;;;;;;;10.93;8.27;;;;;;;0.54;72.52;94291.97;4146221;28;20065;-63
2023/01/28 07:22:15;;;;;;;12.18;8.98;;;;;;;0.63;72.50;94296.47;4119908;28;20058;-64
2023/01/28 07:24:17;;;;;;;10.60;8.38;;;;;;;0.60;71.81;94301.81;4131773;28;20054;-63
2023/01/28 07:26:19;;;;;;;13.70;8.73;;;;;;;0.61;71.91;94304.28;4130527;28;20512;-62
2023/01/28 07:28:20;;;;;;;12.27;8.77;;;;;;;0.51;71.41;94297.31;4144878;28;20094;-62
2023/01/28 07:30:23;;;;;;;13.82;9.75;;;;;;;0.55;71.82;94303.91;4147772;28;20045;-63
2023/01/28 07:32:26;;;;;;;11.45;8.43;;;;;;;0.48;71.70;94307.84;4148098;28;20443;-62
2023/01/28 07:34:27;;;;;;;11.90;8.35;;;;;;;0.57;71.97;94302.84;4130152;28;20057;-63
2023/01/28 07:36:29;;;;;;;11.13;8.50;;;;;;;0.50;72.01;94303.41;4147712;28;20100;-64
2023/01/28 07:38:31;;;;;;;10.20;8.15;;;;;;;0.56;72.26;94318.41;4138289;28;20058;-62
2023/01/28 07:40:32;;;;;;;11.75;8.40;;;;;;;0.55;72.17;94312.44;4126575;28;20141;-63
2023/01/28 07:42:34;;;;;;;11.90;8.68;;;;;;;0.65;71.91;94312.63;4131072;28;20050;-61
2023/01/28 07:44:36;;;;;;;12.95;10.15;;;;;;;0.67;71.85;94315.94;4138163;28;20108;-62
2023/01/28 07:46:37;;;;;;;12.43;9.32;;;;;;;0.65;71.53;94319.56;4148029;28;20041;-64
2023/01/28 07:48:39;;;;;;;12.90;8.85;;;;;;;0.62;71.35;94323.16;4134446;28;20050;-63
2023/01/28 07:50:41;;;;;;;12.70;8.23;;;;;;;0.64;70.89;94321.28;4135685;28;20049;-62
2023/01/28 07:52:45;;;;;;;10.60;8.13;;;;;;;0.61;70.81;94326.69;4147774;28;20046;-62
2023/01/28 07:54:47;;;;;;;10.90;8.45;;;;;;;0.65;71.07;94322.13;4136756;28;20054;-64
2023/01/28 07:56:49;;;;;;;13.10;9.02;;;;;;;0.71;71.17;94329.41;4142420;28;20046;-63
2023/01/28 07:58:50;;;;;;;11.25;8.50;;;;;;;0.64;71.15;94330.78;4131351;28;20495;-63
2023/01/28 08:00:55;;;;;;;11.57;8.90;;;;;;;0.53;71.60;94328.97;4131502;28;20481;-64
2023/01/28 08:03:03;;;;;;;12.35;9.48;;;;;;;0.57;71.70;94335.56;4125996;28;20046;-62
2023/01/28 08:05:05;;;;;;;12.50;9.63;;;;;;;0.63;71.43;94335.13;4117312;28;20054;-63
2023/01/28 08:07:07;;;;;;;12.73;9.13;;;;;;;0.74;70.96;94334.38;4133833;28;20046;-64
2023/01/28 08:09:09;;;;;;;11.95;9.18;;;;;;;0.76;71.09;94343.63;4134368;28;20054;-63
2023/01/28 08:11:10;;;;;;;12.60;8.82;;;;;;;0.82;70.69;94343.19;4133601;28;20054;-64
2023/01/28 08:13:13;;;;;;;11.00;7.88;;;;;;;0.84;69.95;94339.69;4128952;28;20590;-64
2023/01/28 08:15:15;;;;;;;12.18;8.70;;;;;;;0.93;70.27;94339.03;4129605;28;20057;-63
2023/01/28 08:17:16;;;;;;;13.32;8.15;;;;;;;0.89;70.40;94335.84;4147537;28;20108;-64
2023/01/28 08:19:20;;;;;;;11.45;8.70;;;;;;;0.94;70.51;94336.34;4139249;28;20105;-65
2023/01/28 08:21:22;;;;;;;;;;;;;;;0.98;70.61;94344.69;4131205;28;20580;-64
2023/01/28 08:23:29;;;;;;;12.80;8.80;;;;;;;1.00;69.56;94346.22;4131769;28;20462;-64
2023/01/28 08:25:30;;;;;;;11.05;7.88;;;;;;;0.94;69.86;94351.00;4146937;28;20045;-64
2023/01/28 08:27:32;;;;;;;12.68;7.95;;;;;;;1.01;70.43;94349.59;4128609;28;20054;-64
2023/01/28 08:29:34;;;;;;;13.05;9.02;;;;;;;1.12;70.18;94348.84;4146886;28;20065;-63
2023/01/28 08:31:35;;;;;;;11.10;8.77;;;;;;;1.19;69.65;94352.66;4129871;28;20125;-65
2023/01/28 08:33:37;;;;;;;24.73;12.88;;;;;;;1.08;69.55;94355.19;4146843;28;20111;-65
2023/01/28 08:35:39;;;;;;;13.80;8.48;;;;;;;1.08;70.06;94356.00;4147027;28;20049;-65
2023/01/28 08:37:40;;;;;;;10.77;7.18;;;;;;;1.00;69.65;94340.25;4131020;28;20046;-65
2023/01/28 08:39:42;;;;;;;9.98;7.20;;;;;;;1.07;69.62;94336.28;4130972;28;20151;-63
2023/01/28 08:41:46;;;;;;;12.75;8.38;;;;;;;1.03;70.07;94350.31;4129537;28;20749;-65
2023/01/28 08:43:48;;;;;;;12.55;8.48;;;;;;;1.11;69.98;94357.53;4143544;28;20050;-65
2023/01/28 08:45:50;;;;;;;11.18;7.60;;;;;;;1.09;69.41;94349.06;4131381;28;20078;-65
2023/01/28 08:47:59;;;;;;;10.15;7.43;;;;;;;1.08;69.14;94357.75;4130977;28;20086;-64
2023/01/28 08:50:01;;;;;;;10.25;7.07;;;;;;;1.02;69.53;94346.94;4142502;28;20504;-63
2023/01/28 08:52:03;;;;;;;10.18;7.45;;;;;;;1.00;69.56;94350.56;4133919;28;20419;-62
2023/01/28 08:54:04;;;;;;;9.57;7.35;;;;;;;1.00;69.54;94351.38;4141375;28;20089;-63
2023/01/28 08:56:06;;;;;;;8.95;6.75;;;;;;;1.01;69.31;94357.34;4130374;28;20065;-65
2023/01/28 08:58:15;;;;;;;8.07;6.60;;;;;;;1.14;69.46;94358.13;4129711;28;20051;-63
2023/01/28 09:00:18;;;;;;;10.63;6.90;;;;;;;1.09;69.22;94357.63;4134082;28;20725;-64
2023/01/28 09:02:20;;;;;;;11.20;7.70;;;;;;;1.12;69.46;94360.00;4146364;28;20058;-62
2023/01/28 09:04:32;;;;;;;10.15;7.32;;;;;;;1.07;68.91;94351.75;4135016;28;20452;-63
2023/01/28 09:06:34;;;;;;;10.55;7.55;;;;;;;1.15;69.48;94359.78;4132800;28;20288;-64
2023/01/28 09:08:35;;;;;;;9.43;7.20;;;;;;;1.21;69.53;94355.94;4136867;28;20054;-65
2023/01/28 09:10:38;;;;;;;10.95;8.07;;;;;;;1.19;69.53;94348.31;4136555;28;20085;-66
2023/01/28 09:12:39;;;;;;;11.02;7.82;;;;;;;1.25;69.57;94359.09;4129503;28;20459;-63
2023/01/28 09:14:41;;;;;;;10.00;7.53;;;;;;;1.30;68.91;94365.59;4142957;28;20050;-63
2023/01/28 09:16:43;;;;;;;12.35;8.00;;;;;;;1.21;69.35;94355.94;4119777;28;20134;-65
2023/01/28 09:18:44;;;;;;;9.85;7.07;;;;;;;1.30;68.75;94359.59;4143756;28;20493;-63
2023/01/28 09:20:46;;;;;;;14.00;8.82;;;;;;;1.37;69.39;94360.81;4139709;28;20118;-64
2023/01/28 09:22:48;;;;;;;11.30;7.80;;;;;;;1.42;68.62;94367.28;4138901;28;20085;-63
2023/01/28 09:24:49;;;;;;;10.95;7.50;;;;;;;1.45;68.37;94362.84;4146258;28;20046;-62
2023/01/28 09:26:51;;;;;;;13.93;9.50;;;;;;;1.41;68.47;94359.66;4142506;28;20062;-64
2023/01/28 09:28:53;;;;;;;14.63;8.07;;;;;;;1.30;68.96;94352.69;4146078;28;20049;-65
2023/01/28 09:31:05;;;;;;;9.73;7.32;;;;;;;1.23;69.52;94364.41;4146293;28;20092;-64
2023/01/28 09:33:07;;;;;;;10.95;7.80;;;;;;;1.31;69.30;94353.50;4117877;28;20065;-64
2023/01/28 09:35:10;;;;;;;11.20;7.88;;;;;;;1.32;69.39;94358.56;4145894;28;20132;-65
2023/01/28 09:37:12;;;;;;;10.18;7.40;;;;;;;1.41;69.47;94355.31;4146547;28;20479;-65
2023/01/28 09:39:13;;;;;;;11.52;8.35;;;;;;;1.52;69.51;94351.94;4144754;28;20123;-64
2023/01/28 09:41:52;;;;;;;11.18;8.35;;;;;;;1.46;68.67;94354.16;4145288;28;20243;-65
2023/01/28 09:44:26;;;;;;;10.80;7.80;;;;;;;1.55;69.15;94354.31;4128251;28;20527;-64
2023/01/28 09:46:32;;;;;;;12.05;8.73;;;;;;;1.61;68.75;94353.84;4134147;28;20042;-63
2023/01/28 09:48:38;;;;;;;10.45;8.57;;;;;;;1.52;68.90;94364.84;4146548;28;20677;-63
2023/01/28 09:50:43;;;;;;;10.38;7.72;;;;;;;1.39;69.08;94356.34;4147918;28;20479;-63
2023/01/28 09:52:44;;;;;;;10.55;7.38;;;;;;;1.40;68.97;94353.66;4131548;28;20140;-63
2023/01/28 09:54:54;;;;;;;11.80;7.57;;;;;;;1.26;70.03;94355.59;4149786;28;20081;-66
2023/01/28 09:57:05;;;;;;;11.48;7.90;;;;;;;1.20;70.24;94364.59;4129966;28;20046;-66
2023/01/28 09:59:19;;;;;;;11.68;8.10;;;;;;;1.15;69.78;94354.63;4148433;28;20058;-66
2023/01/28 10:01:59;;;;;;;11.48;8.73;;;;;;;1.03;70.59;94360.66;4145261;28;20137;-65
2023/01/28 10:04:30;;;;;;;14.52;9.75;;;;;;;1.05;70.80;94363.13;4138982;28;20060;-65
2023/01/28 10:06:48;;;;;;;10.70;8.45;;;;;;;1.07;70.93;94350.94;4148861;28;20451;-65
2023/01/28 10:08:55;;;;;;;11.30;9.38;;;;;;;1.17;70.77;94352.75;4149210;28;20054;-65
2023/01/28 10:11:18;;;;;;;12.85;9.20;;;;;;;1.26;70.37;94346.09;4148589;28;20077;-65
2023/01/28 10:13:29;;;;;;;12.98;8.98;;;;;;;1.31;70.29;94356.09;4131552;28;20137;-64
2023/01/28 10:15:52;;;;;;;15.70;10.10;;;;;;;0.79;71.04;94363.22;4149518;28;20060;-66
2023/01/28 10:18:00;;;;;;;18.27;12.45;;;;;;;0.62;72.57;94356.66;4131540;28;20238;-65
2023/01/28 10:20:25;;;;;;;17.45;11.30;;;;;;;0.77;72.69;94360.75;4147612;28;20124;-63
2023/01/28 10:23:00;;;;;;;16.10;10.10;;;;;;;0.93;72.59;94354.53;4131273;28;20369;-66
2023/01/28 10:25:06;;;;;;;20.70;14.00;;;;;;;0.99;71.82;94348.91;4131073;28;20054;-66